Time;durP1;ratioP1;P1;durP2;ratioP2;P2;SDS_P1;SDS_P2;PMS_P1;PMS_P2;Temp;Humidity;BMP_temperature;BMP_pressure;BME280_temperature;BME280_humidity;BME280_pressure;Samples;Min_cycle;Max_cycle;Signal;HPM_P1;HPM_P2
2022/01/04 00:00:29;;;;;;;9.40;4.92;;;;;;;5.76;80.98;95741.44;1709291;82;20985;-82
2022/01/04 00:02:57;;;;;;;5.62;3.72;;;;;;;5.73;81.34;95738.23;1708533;82;21111;-83
2022/01/04 00:05:23;;;;;;;14.23;6.87;;;;;;;5.71;81.06;95740.66;1703932;83;21175;-82
2022/01/04 00:07:49;;;;;;;18.23;8.15;;;;;;;5.69;81.59;95738.70;1691102;85;21044;-82
2022/01/04 00:10:20;;;;;;;16.50;6.83;;;;;;;5.67;81.65;95735.02;1746725;81;20956;-82
2022/01/04 00:15:27;;;;;;;13.18;7.15;;;;;;;5.68;81.49;95726.31;1738147;81;21005;-82
2022/01/04 00:17:53;;;;;;;8.83;4.03;;;;;;;5.70;81.59;95724.87;1741669;81;21057;-83
2022/01/04 00:20:18;;;;;;;11.55;5.67;;;;;;;5.71;81.95;95729.06;1745696;81;21349;-83
2022/01/04 00:22:44;;;;;;;30.00;12.58;;;;;;;5.70;81.67;95719.23;1735834;81;20930;-83
2022/01/04 00:25:10;;;;;;;23.83;8.45;;;;;;;5.70;82.00;95718.44;1743942;80;21037;-83
2022/01/04 00:27:36;;;;;;;85.28;29.55;;;;;;;5.69;82.31;95712.94;1758116;81;21411;-82
2022/01/04 00:30:01;;;;;;;14.10;4.80;;;;;;;5.67;82.03;95711.02;1717441;82;21013;-83
2022/01/04 00:32:27;;;;;;;16.35;5.95;;;;;;;5.68;82.37;95706.98;1740333;81;21052;-83
2022/01/04 00:34:54;;;;;;;12.93;6.00;;;;;;;5.67;82.32;95710.53;1720364;82;20972;-82
2022/01/04 00:37:20;;;;;;;14.78;7.45;;;;;;;5.64;82.86;95703.13;1748181;81;21074;-82
2022/01/04 00:39:45;;;;;;;7.00;3.20;;;;;;;5.59;83.09;95705.91;1682287;85;21031;-83
2022/01/04 00:42:11;;;;;;;19.42;10.15;;;;;;;5.57;83.20;95700.92;1717716;83;21008;-83
2022/01/04 00:44:37;;;;;;;33.28;16.82;;;;;;;5.59;83.18;95695.59;1747816;81;20971;-83
2022/01/04 00:47:03;;;;;;;7.60;3.25;;;;;;;5.60;83.58;95690.27;1739452;81;21012;-83
2022/01/04 00:49:29;;;;;;;4.95;2.75;;;;;;;5.60;83.75;95681.73;1753370;81;21007;-83
2022/01/04 00:51:55;;;;;;;15.03;7.87;;;;;;;5.59;82.88;95677.55;1752373;81;21014;-83
2022/01/04 00:54:21;;;;;;;12.05;5.53;;;;;;;5.55;83.63;95675.00;1739908;81;20948;-83
2022/01/04 00:56:47;;;;;;;22.65;11.73;;;;;;;5.51;83.19;95671.94;1743636;81;21363;-83
2022/01/04 00:59:13;;;;;;;16.62;7.90;;;;;;;5.46;83.21;95666.98;1748849;81;21043;-83
2022/01/04 01:01:39;;;;;;;7.35;2.95;;;;;;;5.43;83.46;95664.25;1749370;81;21335;-83
2022/01/04 01:04:06;;;;;;;5.90;2.75;;;;;;;5.43;83.43;95662.97;1750358;81;20980;-83
2022/01/04 01:06:32;;;;;;;9.40;3.00;;;;;;;5.40;83.65;95660.24;1745946;81;21030;-83
2022/01/04 01:08:58;;;;;;;13.00;5.58;;;;;;;5.39;83.35;95661.22;1749076;81;21016;-83
2022/01/04 01:11:23;;;;;;;25.10;12.23;;;;;;;5.39;83.57;95656.55;1750945;81;20968;-83
2022/01/04 01:13:49;;;;;;;4.72;2.60;;;;;;;5.40;83.73;95646.56;1706516;81;20987;-83
2022/01/04 01:16:15;;;;;;;1.92;1.30;;;;;;;5.36;83.85;95643.48;1743483;81;21405;-83
2022/01/04 01:18:41;;;;;;;4.15;2.25;;;;;;;5.36;84.10;95647.36;1738682;81;20986;-83
2022/01/04 01:21:06;;;;;;;6.85;5.30;;;;;;;5.33;84.16;95636.10;1745034;81;20986;-83
2022/01/04 01:23:35;;;;;;;2.85;1.77;;;;;;;5.33;84.31;95616.78;1744409;81;21068;-83
2022/01/04 01:26:01;;;;;;;4.08;3.20;;;;;;;5.35;84.29;95613.55;1742548;81;21018;-82
2022/01/04 01:28:27;;;;;;;4.90;2.52;;;;;;;5.36;84.55;95607.91;1742549;81;20984;-83
2022/01/04 01:30:52;;;;;;;6.40;3.75;;;;;;;5.33;84.99;95604.39;1745990;81;21110;-83
2022/01/04 01:33:18;;;;;;;4.10;2.47;;;;;;;5.33;85.34;95591.51;1736703;81;21047;-83
2022/01/04 01:35:45;;;;;;;6.78;3.72;;;;;;;5.34;85.46;95584.89;1737519;81;20956;-84
2022/01/04 01:38:11;;;;;;;2.40;1.30;;;;;;;5.36;85.48;95579.58;1749155;81;21717;-83
2022/01/04 01:40:37;;;;;;;2.55;1.50;;;;;;;5.41;86.03;95572.16;1739286;81;21014;-83
2022/01/04 01:43:03;;;;;;;3.00;2.42;;;;;;;5.43;85.74;95567.16;1740449;81;21070;-83
2022/01/04 01:45:29;;;;;;;1.98;1.30;;;;;;;5.45;85.80;95564.41;1740119;81;20971;-84
2022/01/04 01:47:56;;;;;;;2.00;1.02;;;;;;;5.48;86.04;95565.83;1737923;81;20991;-83
2022/01/04 01:50:22;;;;;;;2.75;1.55;;;;;;;5.52;86.08;95561.94;1733699;81;21027;-83
2022/01/04 01:52:50;;;;;;;1.67;1.10;;;;;;;5.54;86.16;95560.82;1712571;81;20971;-83
2022/01/04 01:55:18;;;;;;;1.75;1.20;;;;;;;5.56;86.29;95560.16;1746922;81;20991;-83
2022/01/04 01:57:45;;;;;;;1.70;1.55;;;;;;;5.59;86.81;95551.28;1747482;81;21011;-83
2022/01/04 02:00:12;;;;;;;1.47;1.02;;;;;;;5.62;86.70;95548.36;1741601;81;21062;-83
2022/01/04 02:02:38;;;;;;;2.58;1.25;;;;;;;5.66;87.22;95541.87;1745889;81;21031;-83
2022/01/04 02:05:06;;;;;;;1.30;1.20;;;;;;;5.67;86.76;95541.70;1739292;81;21086;-83
2022/01/04 02:07:32;;;;;;;2.10;1.05;;;;;;;5.67;86.81;95531.39;1741178;81;21019;-83
2022/01/04 02:10:04;;;;;;;1.77;1.10;;;;;;;5.71;87.39;95528.02;1703262;81;21015;-83
2022/01/04 02:12:36;;;;;;;2.20;1.35;;;;;;;5.73;87.38;95524.77;1738991;81;20995;-83
2022/01/04 02:15:05;;;;;;;1.65;1.37;;;;;;;5.78;87.71;95524.25;1742897;81;20971;-83
2022/01/04 02:17:31;;;;;;;1.52;1.15;;;;;;;5.81;87.26;95520.03;1739323;81;21520;-83
2022/01/04 02:19:58;;;;;;;1.65;0.90;;;;;;;5.84;87.31;95511.45;1739894;81;20958;-83
2022/01/04 02:22:25;;;;;;;1.47;1.12;;;;;;;5.88;87.34;95507.58;1741829;81;21465;-83
2022/01/04 02:24:50;;;;;;;2.00;1.20;;;;;;;5.93;87.56;95495.48;1744470;81;21023;-83
2022/01/04 02:27:16;;;;;;;1.20;0.90;;;;;;;5.94;87.98;95498.36;1745115;81;21268;-83
2022/01/04 02:29:43;;;;;;;1.75;1.10;;;;;;;5.97;87.72;95504.45;1738913;81;21008;-83
2022/01/04 02:32:08;;;;;;;2.67;1.00;;;;;;;5.98;87.69;95507.34;1741762;81;20932;-83
2022/01/04 02:34:34;;;;;;;2.12;1.15;;;;;;;6.01;87.49;95505.70;1742167;81;20991;-83
2022/01/04 02:37:00;;;;;;;1.90;1.05;;;;;;;6.04;88.02;95506.67;1743004;81;20987;-83
2022/01/04 02:39:26;;;;;;;2.60;1.35;;;;;;;6.07;87.88;95502.94;1745240;81;20979;-83
2022/01/04 02:41:52;;;;;;;2.52;1.10;;;;;;;6.08;88.04;95500.67;1736712;81;21624;-83
2022/01/04 02:44:18;;;;;;;1.77;0.98;;;;;;;6.08;87.74;95497.60;1743185;81;21047;-83
2022/01/04 02:46:44;;;;;;;2.00;1.02;;;;;;;6.11;87.94;95492.58;1683053;84;21383;-83
2022/01/04 02:49:10;;;;;;;1.00;0.90;;;;;;;6.10;88.03;95498.22;1681652;84;21027;-83
2022/01/04 02:51:36;;;;;;;2.37;1.20;;;;;;;6.13;87.89;95490.62;1687890;84;20999;-83
2022/01/04 02:54:01;;;;;;;2.05;1.17;;;;;;;6.14;87.96;95494.31;1686524;84;20994;-83
2022/01/04 02:56:27;;;;;;;2.22;1.80;;;;;;;6.19;87.92;95495.09;1690949;84;21792;-83
2022/01/04 02:58:53;;;;;;;1.92;1.40;;;;;;;6.20;87.96;95487.17;1693434;84;20995;-83
2022/01/04 03:01:19;;;;;;;2.10;1.42;;;;;;;6.23;88.17;95492.47;1696383;84;21476;-83
2022/01/04 03:03:45;;;;;;;3.42;1.50;;;;;;;6.20;88.04;95487.66;1686341;84;21100;-83
2022/01/04 03:06:14;;;;;;;7.92;3.85;;;;;;;6.19;88.10;95483.48;1683399;84;21064;-83
2022/01/04 03:08:40;;;;;;;4.58;3.52;;;;;;;6.18;88.14;95480.11;1674930;84;21012;-83
2022/01/04 03:11:05;;;;;;;4.45;2.10;;;;;;;6.19;88.23;95468.81;1666355;84;21438;-83
2022/01/04 03:13:31;;;;;;;13.85;6.30;;;;;;;6.19;88.18;95467.52;1695315;83;20991;-83
2022/01/04 03:15:57;;;;;;;5.75;2.45;;;;;;;6.21;88.15;95464.76;1711529;81;21061;-83
2022/01/04 03:18:22;;;;;;;3.37;2.02;;;;;;;6.25;88.23;95461.64;1721121;81;21366;-82
2022/01/04 03:20:48;;;;;;;6.22;2.83;;;;;;;6.30;88.32;95468.84;1704897;81;20968;-83
2022/01/04 03:23:14;;;;;;;7.45;3.47;;;;;;;6.31;88.42;95460.92;1706713;81;21063;-83
2022/01/04 03:25:40;;;;;;;14.45;7.10;;;;;;;6.34;88.31;95457.18;1675289;83;21390;-83
2022/01/04 03:28:06;;;;;;;7.78;3.50;;;;;;;6.36;88.51;95452.67;1652809;84;21011;-83
2022/01/04 03:30:33;;;;;;;9.33;4.55;;;;;;;6.37;88.34;95445.73;1638118;85;21088;-83
2022/01/04 03:32:59;;;;;;;6.58;2.85;;;;;;;6.38;88.22;95449.91;1636859;85;21066;-83
2022/01/04 03:35:25;;;;;;;6.20;3.33;;;;;;;6.40;88.19;95446.17;1718512;81;21072;-83
2022/01/04 03:37:51;;;;;;;3.70;1.92;;;;;;;6.41;88.07;95446.97;1723190;81;21094;-83
2022/01/04 03:40:17;;;;;;;1.92;1.25;;;;;;;6.41;88.06;95440.02;1716827;81;21024;-83
2022/01/04 03:42:43;;;;;;;6.75;3.60;;;;;;;6.46;88.18;95434.32;1702168;81;21381;-83
2022/01/04 03:45:09;;;;;;;3.25;2.05;;;;;;;6.50;88.16;95434.27;1728452;81;20994;-83
2022/01/04 03:47:34;;;;;;;2.27;1.45;;;;;;;6.47;88.02;95431.56;1710767;81;21050;-83
2022/01/04 03:50:00;;;;;;;4.92;2.30;;;;;;;6.46;88.10;95426.58;1732246;81;20951;-83
2022/01/04 03:52:26;;;;;;;6.47;3.42;;;;;;;6.43;88.05;95419.20;1716470;81;20952;-82
2022/01/04 03:54:52;;;;;;;5.42;3.17;;;;;;;6.42;88.29;95420.98;1719532;81;21035;-83
2022/01/04 03:57:18;;;;;;;7.58;3.42;;;;;;;6.39;88.16;95409.73;1719912;81;20947;-83
2022/01/04 03:59:43;;;;;;;4.30;2.40;;;;;;;6.40;88.22;95413.11;1719587;81;21080;-83
2022/01/04 04:02:09;;;;;;;2.67;1.70;;;;;;;6.39;88.26;95409.73;1719153;81;21362;-83
2022/01/04 04:04:35;;;;;;;6.53;3.27;;;;;;;6.41;88.56;95411.64;1694664;83;20984;-83
2022/01/04 04:07:01;;;;;;;2.00;1.10;;;;;;;6.41;88.20;95414.22;1738437;81;20960;-83
2022/01/04 04:09:27;;;;;;;20.37;9.95;;;;;;;6.41;88.41;95408.27;1743073;81;21367;-82
2022/01/04 04:11:53;;;;;;;4.62;3.27;;;;;;;6.38;88.38;95409.42;1741719;81;21040;-83
2022/01/04 04:14:18;;;;;;;9.15;4.50;;;;;;;6.37;88.67;95407.83;1739938;81;21452;-83
2022/01/04 04:16:44;;;;;;;2.60;1.42;;;;;;;6.36;88.31;95401.06;1739746;81;20964;-83
2022/01/04 04:19:10;;;;;;;2.95;1.77;;;;;;;6.39;88.60;95410.23;1706225;81;20968;-83
2022/01/04 04:21:35;;;;;;;5.55;3.80;;;;;;;6.41;88.92;95395.36;1746969;81;20982;-83
2022/01/04 04:24:01;;;;;;;4.05;2.30;;;;;;;6.43;88.54;95395.48;1711494;81;21823;-83
2022/01/04 04:26:27;;;;;;;4.12;2.45;;;;;;;6.47;88.36;95400.59;1742145;81;20951;-83
2022/01/04 04:28:52;;;;;;;1.75;1.45;;;;;;;6.47;88.45;95403.17;1737110;81;20988;-83
2022/01/04 04:31:18;;;;;;;2.40;1.90;;;;;;;6.41;88.55;95385.04;1701485;81;22088;-83
2022/01/04 04:33:44;;;;;;;3.40;2.15;;;;;;;6.47;88.42;95390.27;1743360;81;20951;-83
2022/01/04 04:36:10;;;;;;;2.10;1.47;;;;;;;6.48;88.36;95389.28;1740513;81;21004;-83
2022/01/04 04:38:36;;;;;;;3.08;1.75;;;;;;;6.51;88.27;95391.53;1742333;81;21139;-83
2022/01/04 04:41:02;;;;;;;2.05;1.10;;;;;;;6.51;88.75;95390.73;1745416;81;21106;-83
2022/01/04 04:43:27;;;;;;;1.00;0.80;;;;;;;6.52;88.23;95391.04;1738398;81;22256;-83
2022/01/04 04:45:54;;;;;;;2.15;1.15;;;;;;;6.52;88.06;95390.55;1746441;81;21067;-83
2022/01/04 04:48:20;;;;;;;1.57;1.00;;;;;;;6.53;88.11;95386.19;1737714;81;21478;-83
2022/01/04 04:50:46;;;;;;;2.08;1.00;;;;;;;6.55;87.98;95390.67;1739794;81;21022;-82
2022/01/04 04:53:11;;;;;;;3.55;1.00;;;;;;;6.55;87.90;95382.44;1741457;81;21309;-83
2022/01/04 04:55:37;;;;;;;1.90;1.05;;;;;;;6.57;87.86;95390.80;1743751;81;20996;-83
2022/01/04 04:58:03;;;;;;;1.10;0.80;;;;;;;6.57;87.86;95389.51;1737480;81;21436;-83
2022/01/04 05:00:28;;;;;;;5.12;3.33;;;;;;;6.56;87.98;95383.23;1740063;81;20997;-83
2022/01/04 05:02:54;;;;;;;3.12;2.30;;;;;;;6.54;87.91;95382.13;1738611;81;21260;-83
2022/01/04 05:05:20;;;;;;;1.80;1.07;;;;;;;6.55;87.78;95384.22;1739961;81;21454;-83
2022/01/04 05:07:46;;;;;;;1.87;1.57;;;;;;;6.53;87.90;95382.31;1739993;81;21090;-83
2022/01/04 05:10:12;;;;;;;2.20;1.95;;;;;;;6.52;87.81;95376.36;1740665;81;21099;-83
2022/01/04 05:12:37;;;;;;;1.57;1.05;;;;;;;6.53;87.67;95375.37;1741037;81;21530;-83
2022/01/04 05:15:04;;;;;;;2.15;1.05;;;;;;;6.51;88.05;95366.22;1739108;81;20932;-83
2022/01/04 05:17:31;;;;;;;2.05;1.22;;;;;;;6.47;88.05;95365.75;1737176;81;21003;-83
2022/01/04 05:19:57;;;;;;;2.87;1.77;;;;;;;6.47;88.14;95359.30;1739446;81;21011;-83
2022/01/04 05:22:22;;;;;;;2.77;1.70;;;;;;;6.47;87.84;95358.02;1740647;81;21008;-83
2022/01/04 05:24:49;;;;;;;1.77;1.02;;;;;;;6.49;87.89;95353.95;1707648;82;21075;-83
2022/01/04 05:27:15;;;;;;;1.60;1.10;;;;;;;6.48;87.65;95353.16;1746676;81;20996;-83
2022/01/04 05:29:41;;;;;;;2.22;1.10;;;;;;;6.47;87.68;95350.77;1741478;81;20991;-83
2022/01/04 05:32:07;;;;;;;2.87;1.35;;;;;;;6.46;87.92;95356.41;1739707;81;21034;-83
2022/01/04 05:34:33;;;;;;;2.17;1.57;;;;;;;6.45;87.87;95358.69;1738028;81;20995;-83
2022/01/04 05:36:59;;;;;;;2.27;1.42;;;;;;;6.46;88.25;95358.20;1739367;81;21461;-83
2022/01/04 05:39:24;;;;;;;1.55;1.17;;;;;;;6.47;87.94;95351.56;1745618;81;20976;-83
2022/01/04 05:41:50;;;;;;;2.00;1.50;;;;;;;6.48;87.77;95350.58;1737625;81;20976;-83
2022/01/04 05:44:16;;;;;;;4.12;2.47;;;;;;;6.47;87.74;95348.19;1742638;81;21449;-83
2022/01/04 05:46:43;;;;;;;3.35;2.10;;;;;;;6.46;87.95;95338.84;1743449;81;21070;-83
2022/01/04 05:49:09;;;;;;;1.77;1.20;;;;;;;6.45;87.81;95333.38;1740003;81;21004;-83
2022/01/04 05:51:35;;;;;;;1.60;0.98;;;;;;;6.46;87.85;95331.90;1737498;81;21027;-83
2022/01/04 05:54:01;;;;;;;1.20;0.90;;;;;;;6.48;87.77;95323.97;1740931;81;20975;-83
2022/01/04 05:56:26;;;;;;;1.00;0.80;;;;;;;6.49;87.90;95324.28;1739462;81;21015;-83
2022/01/04 05:58:52;;;;;;;4.55;4.00;;;;;;;6.45;87.73;95321.27;1735808;81;20963;-81
2022/01/04 06:01:18;;;;;;;2.15;1.32;;;;;;;6.43;87.98;95310.83;1745705;81;20998;-82
2022/01/04 06:03:46;;;;;;;2.10;1.40;;;;;;;6.41;87.89;95305.85;1738177;81;20960;-82
2022/01/04 06:06:11;;;;;;;3.75;2.02;;;;;;;6.43;87.58;95306.46;1724599;81;21100;-82
2022/01/04 06:08:38;;;;;;;2.98;1.80;;;;;;;6.42;88.05;95298.41;1733189;81;21486;-82
2022/01/04 06:11:04;;;;;;;1.98;1.45;;;;;;;6.41;87.58;95297.31;1728794;81;21103;-82
2022/01/04 06:16:13;;;;;;;1.90;1.60;;;;;;;6.37;87.41;95303.33;1751923;81;21020;-82
2022/01/04 06:18:41;;;;;;;1.22;1.10;;;;;;;6.37;87.40;95303.83;1735338;82;20995;-82
2022/01/04 06:21:08;;;;;;;1.70;1.47;;;;;;;6.35;87.32;95304.01;1670498;84;21008;-82
2022/01/04 06:23:33;;;;;;;2.80;1.70;;;;;;;6.36;87.11;95303.02;1738280;82;20933;-82
2022/01/04 06:25:59;;;;;;;0.88;0.65;;;;;;;6.36;87.25;95299.16;1682104;85;21047;-82
2022/01/04 06:28:25;;;;;;;1.07;0.78;;;;;;;6.35;87.19;95291.11;1744934;81;20995;-82
2022/01/04 06:30:51;;;;;;;1.20;0.70;;;;;;;6.33;87.16;95293.05;1730707;82;21355;-82
2022/01/04 06:33:23;;;;;;;0.90;0.80;;;;;;;6.32;87.07;95278.55;1738462;82;21003;-82
2022/01/04 06:35:49;;;;;;;1.42;0.88;;;;;;;6.32;87.11;95283.22;1737412;82;21008;-82
2022/01/04 06:38:15;;;;;;;1.95;0.70;;;;;;;6.31;86.83;95276.95;1666729;85;21047;-83
2022/01/04 06:40:41;;;;;;;1.25;0.60;;;;;;;6.11;86.70;95246.28;1740339;82;21020;-82
2022/01/04 06:43:07;;;;;;;1.27;0.80;;;;;;;6.32;86.70;95281.13;1737563;82;21061;-82
2022/01/04 06:45:33;;;;;;;1.30;1.20;;;;;;;6.31;86.85;95279.53;1734973;81;21409;-82
2022/01/04 06:47:59;;;;;;;0.85;0.53;;;;;;;6.30;86.56;95267.61;1727227;82;21426;-82
2022/01/04 06:50:24;;;;;;;0.98;0.80;;;;;;;6.32;86.38;95266.45;1742067;82;20961;-81
2022/01/04 06:52:50;;;;;;;0.78;0.70;;;;;;;6.36;86.33;95276.42;1738902;81;20960;-82
2022/01/04 06:55:16;;;;;;;2.20;1.15;;;;;;;6.37;86.10;95260.76;1748024;81;20951;-82
2022/01/04 06:57:43;;;;;;;1.65;0.75;;;;;;;6.37;86.09;95263.34;1740724;81;21399;-82
2022/01/04 07:00:09;;;;;;;1.30;0.60;;;;;;;6.37;86.02;95256.09;1720842;82;20996;-82
2022/01/04 07:02:35;;;;;;;1.35;0.80;;;;;;;6.35;86.02;95254.98;1743249;81;20972;-82
2022/01/04 07:05:02;;;;;;;3.95;1.20;;;;;;;6.36;86.12;95241.59;1744839;81;20966;-82
2022/01/04 07:07:28;;;;;;;1.95;0.95;;;;;;;6.38;85.79;95243.01;1744176;81;21060;-82
2022/01/04 07:09:54;;;;;;;1.50;1.00;;;;;;;6.38;85.79;95237.84;1743241;81;21096;-82
2022/01/04 07:12:20;;;;;;;1.12;0.80;;;;;;;6.38;85.68;95226.23;1734110;81;20999;-82
2022/01/04 07:14:45;;;;;;;1.35;1.00;;;;;;;6.38;85.62;95216.41;1744602;81;20989;-82
2022/01/04 07:17:11;;;;;;;1.55;1.00;;;;;;;6.39;85.60;95222.67;1686488;84;20991;-82
2022/01/04 07:19:39;;;;;;;1.30;1.00;;;;;;;6.41;85.46;95229.73;1739689;81;20999;-82
2022/01/04 07:22:04;;;;;;;1.12;1.02;;;;;;;6.41;85.35;95211.67;1752707;81;21026;-82
2022/01/04 07:24:30;;;;;;;1.50;1.10;;;;;;;6.41;84.87;95192.32;1755894;81;20968;-82
2022/01/04 07:26:56;;;;;;;1.45;1.07;;;;;;;6.37;84.79;95189.81;1741957;81;20971;-82
2022/01/04 07:29:22;;;;;;;1.82;1.30;;;;;;;6.42;84.75;95182.30;1750287;81;21087;-82
2022/01/04 07:31:47;;;;;;;1.75;1.10;;;;;;;6.46;84.37;95173.70;1753587;81;21536;-82
2022/01/04 07:34:13;;;;;;;1.30;1.10;;;;;;;6.49;84.52;95176.70;1735260;81;21050;-82
2022/01/04 07:36:39;;;;;;;1.80;1.32;;;;;;;6.52;84.24;95176.84;1749580;81;20943;-82
2022/01/04 07:39:05;;;;;;;1.42;1.20;;;;;;;6.55;84.47;95185.01;1747586;81;21016;-82
2022/01/04 07:41:31;;;;;;;1.67;1.45;;;;;;;6.58;84.28;95169.14;1727224;82;21359;-82
2022/01/04 07:43:57;;;;;;;1.27;1.05;;;;;;;6.60;84.26;95166.38;1689216;85;21312;-82
2022/01/04 07:46:25;;;;;;;2.02;1.40;;;;;;;6.65;84.28;95164.52;1745658;81;20977;-82
2022/01/04 07:48:51;;;;;;;2.85;1.62;;;;;;;6.70;83.94;95159.13;1750970;81;21486;-82
2022/01/04 07:51:17;;;;;;;4.47;2.58;;;;;;;6.72;84.06;95166.18;1751600;81;21043;-82
2022/01/04 07:53:45;;;;;;;1.72;1.10;;;;;;;6.74;83.94;95174.53;1741486;81;21048;-82
2022/01/04 07:56:11;;;;;;;1.98;0.90;;;;;;;6.75;83.85;95168.87;1742511;81;21014;-82
2022/01/04 07:58:37;;;;;;;1.60;1.22;;;;;;;6.76;83.77;95171.27;1746670;81;21431;-82
2022/01/04 08:01:02;;;;;;;2.30;1.50;;;;;;;6.77;84.20;95169.48;1744439;81;21051;-82
2022/01/04 08:03:28;;;;;;;2.05;1.47;;;;;;;6.82;84.04;95169.70;1744921;81;21054;-82
2022/01/04 08:05:54;;;;;;;1.57;1.30;;;;;;;6.81;83.83;95153.42;1737243;81;21059;-82
2022/01/04 08:08:20;;;;;;;2.90;1.65;;;;;;;6.83;83.79;95149.36;1728978;82;21007;-82
2022/01/04 08:10:47;;;;;;;1.45;1.10;;;;;;;6.84;83.64;95143.23;1735450;82;21024;-82
2022/01/04 08:13:13;;;;;;;1.95;1.50;;;;;;;6.84;83.59;95132.41;1743129;82;21017;-82
2022/01/04 08:15:40;;;;;;;2.33;1.77;;;;;;;6.86;83.52;95127.86;1739334;82;21051;-82
2022/01/04 08:18:05;;;;;;;2.40;1.85;;;;;;;6.89;83.82;95116.34;1725932;82;21402;-82
2022/01/04 08:20:31;;;;;;;2.72;1.92;;;;;;;6.92;83.97;95113.38;1743838;82;21077;-82
2022/01/04 08:22:59;;;;;;;2.00;1.52;;;;;;;6.91;83.64;95103.55;1733619;82;21019;-87
2022/01/04 08:25:24;;;;;;;2.98;2.40;;;;;;;6.93;83.98;95102.06;1735826;82;21375;-84
2022/01/04 08:27:52;;;;;;;4.15;3.20;;;;;;;6.92;83.92;95099.97;1729069;82;21099;-83
2022/01/04 08:30:18;;;;;;;8.90;6.50;;;;;;;6.94;83.80;95095.91;1705209;84;21458;-83
2022/01/04 08:32:43;;;;;;;161.40;86.08;;;;;;;6.95;83.81;95102.66;1742908;82;21130;-83
2022/01/04 08:35:09;;;;;;;28.62;16.87;;;;;;;6.98;83.60;95092.45;1724385;82;21062;-83
2022/01/04 08:37:35;;;;;;;10.98;5.37;;;;;;;6.99;83.46;95086.29;1741913;82;21435;-83
2022/01/04 08:40:03;;;;;;;33.38;13.72;;;;;;;6.97;83.73;95081.31;1743773;82;21018;-83
2022/01/04 08:42:28;;;;;;;7.95;4.40;;;;;;;6.98;83.69;95081.62;1745885;82;21390;-83
2022/01/04 08:44:55;;;;;;;5.53;2.60;;;;;;;7.01;83.73;95064.48;1742791;82;20956;-83
2022/01/04 08:47:23;;;;;;;4.12;1.85;;;;;;;7.04;83.85;95070.55;1741144;82;20980;-83
2022/01/04 08:49:49;;;;;;;10.98;5.35;;;;;;;7.07;83.93;95071.94;1740320;82;20965;-83
2022/01/04 08:52:15;;;;;;;7.70;3.45;;;;;;;7.06;83.83;95071.64;1737884;81;21355;-83
2022/01/04 08:54:41;;;;;;;14.47;5.80;;;;;;;7.07;83.91;95067.57;1732910;82;21037;-83
2022/01/04 08:57:07;;;;;;;11.25;4.28;;;;;;;7.08;83.91;95054.16;1733001;82;20994;-83
2022/01/04 08:59:33;;;;;;;5.75;2.60;;;;;;;7.11;84.29;95059.73;1686343;83;21361;-83
2022/01/04 09:01:59;;;;;;;11.57;6.62;;;;;;;7.11;84.13;95055.86;1683774;85;20984;-83
2022/01/04 09:04:24;;;;;;;10.80;5.33;;;;;;;7.12;84.06;95051.48;1742206;82;22020;-84
2022/01/04 09:06:50;;;;;;;6.47;3.90;;;;;;;7.14;84.01;95044.34;1735010;81;20987;-83
2022/01/04 09:09:16;;;;;;;23.83;10.88;;;;;;;7.12;84.24;95036.79;1717628;81;21073;-83
2022/01/04 09:11:42;;;;;;;7.78;3.98;;;;;;;7.14;84.08;95035.30;1742261;82;21027;-83
2022/01/04 09:19:19;;;;;;;4.22;2.47;;;;;;;7.19;84.10;95043.29;1714797;82;21059;-82
2022/01/04 09:21:45;;;;;;;8.23;3.33;;;;;;;7.18;84.21;95033.45;1732808;81;20944;-82
2022/01/04 09:24:11;;;;;;;14.05;6.53;;;;;;;7.18;84.19;95021.83;1740049;81;22118;-82
2022/01/04 09:26:38;;;;;;;10.58;4.75;;;;;;;7.20;84.19;95018.55;1733244;82;21118;-82
2022/01/04 09:29:04;;;;;;;25.60;10.98;;;;;;;7.23;84.24;95012.99;1732612;82;20957;-83
2022/01/04 09:31:30;;;;;;;14.68;5.78;;;;;;;7.26;83.98;95000.17;1742871;82;21067;-82
2022/01/04 09:33:57;;;;;;;8.25;3.20;;;;;;;7.30;84.09;95003.16;1745112;82;20992;-82
2022/01/04 09:36:23;;;;;;;11.90;5.10;;;;;;;7.30;83.98;95005.25;1739864;81;20979;-82
2022/01/04 09:38:48;;;;;;;10.05;3.85;;;;;;;7.30;84.04;94988.45;1720908;82;20988;-83
2022/01/04 09:41:14;;;;;;;7.50;3.10;;;;;;;7.34;83.64;94990.17;1747119;82;20920;-83
2022/01/04 09:43:40;;;;;;;63.08;25.30;;;;;;;7.37;83.84;94988.48;1717914;82;20972;-82
2022/01/04 09:46:06;;;;;;;28.65;11.22;;;;;;;7.39;83.60;94980.05;1708790;83;21024;-82
2022/01/04 09:48:31;;;;;;;13.55;5.17;;;;;;;7.38;83.90;94966.33;1740843;82;21031;-83
2022/01/04 09:50:57;;;;;;;18.90;6.67;;;;;;;7.40;83.87;94964.34;1744010;82;21429;-82
2022/01/04 09:53:24;;;;;;;12.15;5.17;;;;;;;7.41;83.40;94949.13;1743561;82;21359;-82
2022/01/04 09:55:55;;;;;;;12.20;5.20;;;;;;;7.44;83.79;94944.06;1735853;82;21021;-82
2022/01/04 09:58:23;;;;;;;6.07;2.97;;;;;;;7.47;83.88;94948.33;1741017;81;20929;-83
2022/01/04 10:00:49;;;;;;;32.50;11.75;;;;;;;7.50;83.85;94937.63;1730640;82;21357;-82
2022/01/04 10:03:22;;;;;;;13.13;5.65;;;;;;;7.51;83.58;94930.67;1672839;83;21470;-82
2022/01/04 10:05:48;;;;;;;11.95;4.37;;;;;;;7.52;83.67;94929.17;1708064;83;21050;-83
2022/01/04 10:08:14;;;;;;;25.95;10.03;;;;;;;7.56;83.62;94923.11;1697962;83;21008;-82
2022/01/04 10:10:40;;;;;;;14.35;6.08;;;;;;;7.60;83.84;94891.98;1709135;82;20992;-83
2022/01/04 10:13:13;;;;;;;6.08;3.08;;;;;;;7.64;83.09;94890.58;1747951;81;21390;-84
2022/01/04 10:15:47;;;;;;;18.45;7.30;;;;;;;7.71;83.32;94902.23;1718460;82;21059;-84
2022/01/04 10:18:21;;;;;;;12.47;5.33;;;;;;;7.72;83.13;94889.10;1731272;81;21088;-83
2022/01/04 10:21:02;;;;;;;16.45;6.67;;;;;;;7.76;83.27;94887.70;1741420;81;21038;-84
2022/01/04 10:23:29;;;;;;;15.35;6.80;;;;;;;7.82;83.42;94892.09;1737350;81;21003;-84
2022/01/04 10:26:04;;;;;;;4.22;2.60;;;;;;;7.85;83.17;94876.66;1724472;81;20952;-84
2022/01/04 10:28:39;;;;;;;22.00;9.60;;;;;;;7.88;82.45;94896.95;1741971;81;20963;-84
2022/01/04 10:31:09;;;;;;;7.25;3.62;;;;;;;7.92;82.68;94883.90;1738518;81;20941;-83
2022/01/04 10:33:35;;;;;;;15.85;7.92;;;;;;;7.94;82.30;94884.99;1738337;81;20983;-83
2022/01/04 10:36:14;;;;;;;8.50;3.90;;;;;;;7.96;82.21;94881.70;1743272;81;20971;-83
2022/01/04 10:38:42;;;;;;;4.83;3.20;;;;;;;7.99;81.50;94881.33;1718974;81;20924;-83
2022/01/04 10:41:20;;;;;;;3.45;1.80;;;;;;;8.02;81.67;94883.50;1689039;84;21007;-84
2022/01/04 10:44:02;;;;;;;14.60;8.25;;;;;;;8.04;81.04;94885.38;1754543;81;21040;-82
2022/01/04 10:46:41;;;;;;;19.45;10.05;;;;;;;8.06;81.50;94880.80;1740926;81;21090;-83
2022/01/04 10:49:19;;;;;;;25.25;12.30;;;;;;;8.09;81.54;94880.39;1746642;81;21087;-83
2022/01/04 10:51:47;;;;;;;10.68;4.90;;;;;;;8.12;81.00;94879.98;1747766;81;21037;-83
2022/01/04 10:54:20;;;;;;;18.37;9.05;;;;;;;8.11;80.74;94866.25;1745027;81;21071;-83
2022/01/04 10:56:46;;;;;;;12.70;6.53;;;;;;;8.16;80.83;94875.22;1743890;81;20990;-82
2022/01/04 10:59:13;;;;;;;10.75;6.37;;;;;;;8.15;79.96;94869.25;1737886;81;20996;-82
2022/01/04 11:01:47;;;;;;;19.27;10.80;;;;;;;8.15;80.52;94875.72;1752237;81;20995;-83
2022/01/04 11:04:16;;;;;;;17.48;9.43;;;;;;;8.16;80.27;94860.48;1742648;81;21035;-83
2022/01/04 11:06:42;;;;;;;15.78;9.00;;;;;;;8.18;79.98;94860.28;1736221;81;20997;-83
2022/01/04 11:09:08;;;;;;;5.42;4.20;;;;;;;8.19;80.11;94855.40;1738523;82;20980;-82
2022/01/04 11:11:34;;;;;;;4.80;4.03;;;;;;;8.20;79.43;94862.95;1678969;85;21015;-83
2022/01/04 11:14:00;;;;;;;5.83;4.10;;;;;;;8.17;79.51;94859.48;1746782;82;20997;-83
2022/01/04 11:16:28;;;;;;;3.35;2.87;;;;;;;8.18;79.80;94853.31;1751988;82;20917;-83
2022/01/04 11:18:56;;;;;;;6.67;5.20;;;;;;;8.20;79.51;94857.78;1738359;81;21096;-83
2022/01/04 11:21:35;;;;;;;3.15;2.52;;;;;;;8.20;79.48;94842.75;1743727;82;21008;-83
2022/01/04 11:24:05;;;;;;;2.02;1.57;;;;;;;8.18;79.69;94833.11;1734346;82;22334;-82
2022/01/04 11:26:31;;;;;;;3.12;2.02;;;;;;;8.16;79.13;94835.11;1728694;82;21125;-83
2022/01/04 11:28:57;;;;;;;4.47;2.92;;;;;;;8.18;79.03;94833.11;1739595;81;21036;-83
2022/01/04 11:31:54;;;;;;;4.87;3.12;;;;;;;8.19;79.41;94820.47;1735016;82;21018;-83
2022/01/04 11:35:03;;;;;;;12.63;6.53;;;;;;;8.20;78.66;94825.44;1743494;82;21467;-83
2022/01/04 11:37:28;;;;;;;6.87;3.20;;;;;;;8.19;79.06;94814.80;1743598;82;20983;-82
2022/01/04 11:39:54;;;;;;;15.13;7.40;;;;;;;8.20;78.90;94813.00;1741387;81;20956;-83
2022/01/04 11:42:35;;;;;;;6.08;3.60;;;;;;;8.19;78.83;94801.86;1719353;82;20958;-83
2022/01/04 11:45:04;;;;;;;4.67;3.00;;;;;;;8.21;78.42;94801.66;1734083;82;21043;-83
2022/01/04 11:47:31;;;;;;;6.53;4.08;;;;;;;8.23;78.04;94790.09;1699299;82;21012;-83